createdAt,value
2023-02-15T00:00:38.967Z,2.10
2023-02-15T00:03:05.462Z,2.05
2023-02-15T00:05:32.324Z,2.12
2023-02-15T00:07:58.739Z,2.10
2023-02-15T00:10:25.139Z,2.09
2023-02-15T00:12:51.525Z,2.08
2023-02-15T00:15:18.019Z,2.07
2023-02-15T00:17:44.450Z,2.00
2023-02-15T00:20:11.854Z,2.01
2023-02-15T00:22:38.271Z,1.96
2023-02-15T00:25:04.942Z,1.93
2023-02-15T00:27:31.355Z,1.90
2023-02-15T00:29:57.857Z,1.88
2023-02-15T00:32:24.270Z,1.87
2023-02-15T00:34:50.660Z,1.87
2023-02-15T00:37:17.129Z,1.83
2023-02-15T00:39:47.231Z,1.76
2023-02-15T00:42:13.626Z,1.78
2023-02-15T00:44:40.049Z,1.74
2023-02-15T00:47:06.543Z,1.75
2023-02-15T00:49:33.383Z,1.72
2023-02-15T00:51:59.808Z,1.71
2023-02-15T00:54:26.219Z,1.68
2023-02-15T00:56:52.627Z,1.60
2023-02-15T00:59:19.044Z,1.62
2023-02-15T01:01:47.548Z,1.69
2023-02-15T01:04:13.992Z,1.63
2023-02-15T01:06:40.432Z,1.58
2023-02-15T01:09:06.895Z,1.58
2023-02-15T01:11:33.321Z,1.58
2023-02-15T01:13:59.795Z,1.48
2023-02-15T01:16:28.573Z,1.47
2023-02-15T01:18:57.986Z,1.46
2023-02-15T01:21:26.119Z,1.47
2023-02-15T01:23:52.905Z,1.48
2023-02-15T01:26:19.300Z,1.45
2023-02-15T01:28:46.511Z,1.41
2023-02-15T01:31:15.772Z,1.34
2023-02-15T01:33:44.533Z,1.31
2023-02-15T01:36:11.294Z,1.33
2023-02-15T01:38:40.719Z,1.36
2023-02-15T01:41:25.480Z,1.52
2023-02-15T01:43:56.188Z,1.43
2023-02-15T01:46:32.296Z,1.50
2023-02-15T01:49:10.740Z,1.46
2023-02-15T01:51:38.825Z,1.30
2023-02-15T01:54:12.905Z,1.24
2023-02-15T01:56:41.863Z,1.18
2023-02-15T01:59:15.804Z,1.16
2023-02-15T02:01:42.327Z,1.22
2023-02-15T02:04:18.882Z,1.15
2023-02-15T02:06:49.563Z,1.08
2023-02-15T02:09:16.014Z,1.03
2023-02-15T02:11:45.817Z,1.03
2023-02-15T02:14:12.851Z,1.01
2023-02-15T02:16:53.226Z,1.01
2023-02-15T02:19:46.618Z,1.00
2023-02-15T02:22:50.434Z,1.11
2023-02-15T02:25:33.753Z,0.97
2023-02-15T02:28:36.657Z,0.88
2023-02-15T02:31:49.181Z,0.87
2023-02-15T02:34:32.649Z,0.83
2023-02-15T02:37:24.237Z,0.80
2023-02-15T02:40:04.721Z,0.80
2023-02-15T02:42:39.839Z,0.81
2023-02-15T02:45:07.829Z,0.78
2023-02-15T02:47:39.948Z,0.79
2023-02-15T02:50:10.778Z,0.80
2023-02-15T02:52:52.382Z,0.74
2023-02-15T02:55:30.961Z,0.74
2023-02-15T02:58:16.782Z,0.70
2023-02-15T03:00:49.368Z,0.71
2023-02-15T03:03:38.676Z,0.65
2023-02-15T03:06:11.109Z,0.64
2023-02-15T03:08:43.422Z,0.65
2023-02-15T03:11:10.034Z,0.60
2023-02-15T03:13:36.698Z,0.56
2023-02-15T03:16:26.357Z,0.53
2023-02-15T03:18:59.598Z,0.51
2023-02-15T03:21:58.593Z,0.72
2023-02-15T03:24:31.242Z,0.73
2023-02-15T03:26:58.105Z,0.56
2023-02-15T03:29:28.317Z,0.49
2023-02-15T03:31:58.877Z,0.39
2023-02-15T03:34:26.169Z,0.49
2023-02-15T03:37:17.372Z,0.56
2023-02-15T03:39:53.473Z,0.38
2023-02-15T03:42:32.459Z,0.35
2023-02-15T03:45:03.506Z,0.35
2023-02-15T03:47:32.235Z,0.50
2023-02-15T03:50:27.796Z,0.41
2023-02-15T03:52:56.521Z,0.34
2023-02-15T03:55:23.121Z,0.32
2023-02-15T03:58:08.332Z,0.28
2023-02-15T04:00:57.089Z,0.26
2023-02-15T04:03:46.764Z,0.21
2023-02-15T04:06:13.139Z,0.33
2023-02-15T04:08:58.277Z,0.40
2023-02-15T04:11:24.707Z,0.41
2023-02-15T04:13:57.241Z,0.29
2023-02-15T04:16:24.760Z,0.19
2023-02-15T04:19:09.784Z,0.15
2023-02-15T04:21:54.825Z,0.24
2023-02-15T04:24:39.989Z,0.23
2023-02-15T04:27:06.790Z,0.18
2023-02-15T04:29:33.462Z,0.18
2023-02-15T04:32:02.131Z,0.21
2023-02-15T04:34:28.586Z,0.23
2023-02-15T04:36:54.986Z,0.29
2023-02-15T04:39:21.373Z,0.36
2023-02-15T04:41:48.677Z,0.38
2023-02-15T04:44:15.184Z,0.37
2023-02-15T04:46:41.597Z,0.28
2023-02-15T04:49:09.470Z,0.31
2023-02-15T04:51:35.887Z,0.29
2023-02-15T04:54:02.292Z,0.36
2023-02-15T04:56:30.875Z,0.39
2023-02-15T04:58:57.333Z,0.38
2023-02-15T05:01:23.772Z,0.43
2023-02-15T05:03:50.284Z,0.43
2023-02-15T05:06:16.719Z,0.46
2023-02-15T05:08:43.130Z,0.38
2023-02-15T05:11:09.614Z,0.43
2023-02-15T05:13:36.017Z,0.42
2023-02-15T05:16:02.819Z,0.43
2023-02-15T05:18:29.438Z,0.47
2023-02-15T05:20:55.873Z,0.41
2023-02-15T05:23:22.280Z,0.40
2023-02-15T05:26:08.175Z,0.42
2023-02-15T05:28:35.726Z,0.59
2023-02-15T05:31:12.718Z,0.63
2023-02-15T05:33:40.302Z,0.62
2023-02-15T05:36:07.614Z,0.62
2023-02-15T05:38:34.421Z,0.55
2023-02-15T05:41:00.939Z,0.57
2023-02-15T05:43:27.652Z,0.65
2023-02-15T05:45:55.728Z,0.67
2023-02-15T05:48:24.958Z,0.64
2023-02-15T05:51:13.849Z,0.66
2023-02-15T05:53:40.710Z,0.59
2023-02-15T05:56:09.013Z,0.72
2023-02-15T05:58:38.839Z,0.74
2023-02-15T06:01:23.901Z,0.64
2023-02-15T06:03:50.405Z,0.67
2023-02-15T06:06:17.014Z,0.68
2023-02-15T06:08:43.460Z,0.73
2023-02-15T06:11:10.244Z,0.76
2023-02-15T06:13:38.697Z,0.80
2023-02-15T06:16:06.615Z,0.87
2023-02-15T06:18:33.143Z,0.89
2023-02-15T06:20:59.571Z,0.87
2023-02-15T06:23:26.006Z,0.69
2023-02-15T06:25:52.547Z,0.76
2023-02-15T06:28:18.984Z,0.75
2023-02-15T06:30:45.415Z,0.82
2023-02-15T06:33:11.824Z,0.78
2023-02-15T06:35:38.241Z,0.82
2023-02-15T06:38:05.696Z,0.85
2023-02-15T06:40:32.090Z,0.85
2023-02-15T06:42:58.486Z,0.79
2023-02-15T06:45:24.923Z,0.85
2023-02-15T06:47:51.321Z,0.88
2023-02-15T06:50:17.771Z,0.83
2023-02-15T06:52:44.238Z,0.92
2023-02-15T06:55:10.627Z,0.88
2023-02-15T06:57:37.429Z,0.89
2023-02-15T07:00:05.854Z,0.79
2023-02-15T07:02:32.565Z,0.76
2023-02-15T07:04:59.046Z,0.81
2023-02-15T07:07:25.511Z,0.91
2023-02-15T07:09:52.191Z,0.88
2023-02-15T07:12:37.424Z,0.99
2023-02-15T07:15:06.899Z,1.01
2023-02-15T07:17:35.897Z,1.08
2023-02-15T07:20:05.829Z,1.10
2023-02-15T07:22:32.299Z,1.24
2023-02-15T07:24:58.751Z,1.49
2023-02-15T07:27:25.144Z,1.51
2023-02-15T07:29:51.582Z,1.55
2023-02-15T07:32:18.195Z,1.70
2023-02-15T07:34:44.625Z,1.54
2023-02-15T07:37:11.072Z,1.46
2023-02-15T07:39:37.481Z,1.32
2023-02-15T07:42:03.889Z,1.31
2023-02-15T07:44:31.114Z,1.31
2023-02-15T07:46:57.515Z,1.30
2023-02-15T07:49:24.159Z,1.32
2023-02-15T07:51:50.684Z,1.27
2023-02-15T07:54:17.089Z,1.32
2023-02-15T07:56:43.497Z,1.34
2023-02-15T07:59:10.185Z,1.31
2023-02-15T08:01:38.103Z,1.32
2023-02-15T08:04:06.994Z,1.34
2023-02-15T08:06:36.788Z,1.40
2023-02-15T08:09:08.604Z,1.42
2023-02-15T08:11:43.668Z,1.45
2023-02-15T08:14:15.504Z,1.44
2023-02-15T08:16:44.895Z,1.52
2023-02-15T08:19:12.564Z,1.45
2023-02-15T08:21:41.618Z,1.50
2023-02-15T08:24:09.501Z,1.49
2023-02-15T08:26:36.690Z,1.53
2023-02-15T08:29:04.106Z,1.58
2023-02-15T08:31:30.750Z,1.67
2023-02-15T08:33:58.242Z,1.72
2023-02-15T08:36:29.786Z,1.71
2023-02-15T08:38:59.263Z,1.71
2023-02-15T08:41:28.031Z,1.85
2023-02-15T08:43:56.265Z,1.89
2023-02-15T08:46:24.492Z,1.85
2023-02-15T08:48:51.411Z,1.88
2023-02-15T08:51:26.218Z,1.97
2023-02-15T08:53:55.148Z,1.98
2023-02-15T08:56:27.085Z,1.97
2023-02-15T08:58:54.298Z,2.05
2023-02-15T09:01:23.399Z,2.08
2023-02-15T09:03:54.306Z,2.18
2023-02-15T09:06:21.873Z,2.22
2023-02-15T09:08:48.385Z,2.19
2023-02-15T09:11:23.185Z,2.16
2023-02-15T09:13:53.071Z,2.20
2023-02-15T09:16:19.501Z,2.19
2023-02-15T09:18:46.277Z,2.28
2023-02-15T09:21:18.192Z,2.32
2023-02-15T09:23:45.879Z,2.37
2023-02-15T09:26:15.353Z,2.44
2023-02-15T09:28:42.216Z,2.45
2023-02-15T09:31:18.291Z,2.46
2023-02-15T09:33:46.895Z,2.55
2023-02-15T09:36:27.925Z,2.59
2023-02-15T09:39:00.000Z,2.51
2023-02-15T09:41:38.312Z,2.56
2023-02-15T09:44:23.174Z,2.66
2023-02-15T09:47:28.637Z,2.75
2023-02-15T09:50:19.989Z,2.79
2023-02-15T09:52:48.883Z,2.81
2023-02-15T09:55:49.407Z,2.84
2023-02-15T09:58:38.000Z,2.75
2023-02-15T10:01:21.759Z,2.67
2023-02-15T10:04:19.336Z,2.78
2023-02-15T10:07:14.991Z,2.85
2023-02-15T10:10:08.570Z,2.87
2023-02-15T10:13:13.766Z,2.89
2023-02-15T10:15:54.252Z,3.04
2023-02-15T10:18:51.449Z,3.06
2023-02-15T10:21:41.332Z,3.01
2023-02-15T10:24:23.837Z,3.15
2023-02-15T10:26:50.313Z,3.13
2023-02-15T10:29:32.702Z,3.27
2023-02-15T10:32:24.424Z,3.27
2023-02-15T10:35:24.434Z,3.40
2023-02-15T10:38:06.671Z,3.44
2023-02-15T10:40:47.460Z,3.53
2023-02-15T10:43:19.840Z,3.55
2023-02-15T10:45:57.817Z,3.64
2023-02-15T10:48:58.577Z,3.65
2023-02-15T10:51:43.837Z,3.71
2023-02-15T10:54:49.218Z,3.67
2023-02-15T10:57:40.526Z,3.75
2023-02-15T11:00:10.416Z,3.75
2023-02-15T11:03:01.903Z,3.74
2023-02-15T11:06:02.222Z,3.91
2023-02-15T11:08:32.445Z,4.08
2023-02-15T11:11:12.627Z,4.14
2023-02-15T11:13:48.173Z,4.16
2023-02-15T11:16:23.854Z,4.25
2023-02-15T11:19:11.898Z,4.32
2023-02-15T11:21:43.878Z,4.38
2023-02-15T11:24:19.184Z,4.52
2023-02-15T11:26:52.690Z,4.61
2023-02-15T11:29:41.644Z,4.65
2023-02-15T11:32:26.917Z,4.81
2023-02-15T11:35:15.981Z,4.82
2023-02-15T11:37:59.621Z,4.93
2023-02-15T11:40:36.329Z,5.07
2023-02-15T11:43:14.509Z,5.05
2023-02-15T11:45:43.547Z,5.20
2023-02-15T11:48:12.765Z,5.25
2023-02-15T11:50:39.796Z,5.34
2023-02-15T11:53:12.585Z,5.47
2023-02-15T11:55:39.652Z,5.53
2023-02-15T11:58:22.124Z,5.67
2023-02-15T12:00:53.330Z,5.83
2023-02-15T12:03:25.404Z,5.98
2023-02-15T12:05:57.276Z,6.05
2023-02-15T12:08:23.701Z,6.13
2023-02-15T12:11:01.623Z,6.25
2023-02-15T12:13:28.342Z,6.38
2023-02-15T12:15:58.375Z,6.54
2023-02-15T12:18:45.168Z,6.66
2023-02-15T12:21:29.111Z,6.75
2023-02-15T12:24:00.922Z,6.85
2023-02-15T12:26:33.108Z,6.91
2023-02-15T12:29:03.112Z,7.03
2023-02-15T12:31:37.116Z,7.18
2023-02-15T12:34:26.245Z,7.37
2023-02-15T12:36:58.892Z,7.53
2023-02-15T12:39:28.480Z,7.79
2023-02-15T12:41:54.865Z,7.89
2023-02-15T12:44:25.229Z,8.05
2023-02-15T12:47:04.946Z,8.35
2023-02-15T12:49:36.951Z,8.58
2023-02-15T12:52:21.042Z,8.54
2023-02-15T12:54:48.325Z,8.47
2023-02-15T12:57:27.594Z,8.71
2023-02-15T13:00:06.965Z,8.84
2023-02-15T13:02:43.788Z,9.04
2023-02-15T13:05:38.201Z,9.15
2023-02-15T13:08:17.579Z,9.35
2023-02-15T13:10:56.903Z,9.15
2023-02-15T13:13:27.207Z,9.38
2023-02-15T13:15:59.258Z,9.48
2023-02-15T13:18:37.800Z,9.72
2023-02-15T13:21:12.070Z,9.83
2023-02-15T13:23:43.159Z,10.01
2023-02-15T13:26:11.885Z,10.11
2023-02-15T13:28:48.324Z,10.22
2023-02-15T13:31:18.357Z,10.23
2023-02-15T13:33:50.385Z,10.33
2023-02-15T13:36:25.720Z,10.51
2023-02-15T13:38:58.345Z,10.54
2023-02-15T13:41:36.640Z,10.56
2023-02-15T13:44:38.622Z,10.68
2023-02-15T13:47:18.148Z,10.55
2023-02-15T13:50:07.783Z,10.83
2023-02-15T13:52:57.429Z,11.00
2023-02-15T13:55:35.537Z,11.03
2023-02-15T13:58:39.376Z,11.08
2023-02-15T14:01:19.374Z,11.04
2023-02-15T14:04:11.401Z,11.19
2023-02-15T14:07:07.321Z,11.37
2023-02-15T14:09:48.797Z,11.52
2023-02-15T14:12:46.755Z,11.63
2023-02-15T14:15:13.107Z,11.72
2023-02-15T14:17:55.284Z,11.71
2023-02-15T14:20:40.336Z,11.76
2023-02-15T14:23:29.000Z,11.88
2023-02-15T14:26:02.851Z,11.91
2023-02-15T14:28:38.299Z,12.01
2023-02-15T14:31:08.138Z,12.00
2023-02-15T14:33:53.517Z,11.81
2023-02-15T14:36:20.936Z,11.62
2023-02-15T14:39:30.333Z,11.77
2023-02-15T14:42:02.909Z,11.60
2023-02-15T14:45:02.380Z,11.45
2023-02-15T14:47:37.684Z,11.65
2023-02-15T14:50:39.500Z,11.67
2023-02-15T14:53:27.575Z,11.71
2023-02-15T14:56:12.385Z,11.70
2023-02-15T14:58:39.139Z,11.62
2023-02-15T15:01:10.662Z,11.59
2023-02-15T15:03:44.116Z,11.56
2023-02-15T15:06:26.257Z,11.57
2023-02-15T15:08:56.642Z,11.74
2023-02-15T15:11:42.638Z,11.75
2023-02-15T15:14:11.302Z,11.67
2023-02-15T15:16:38.082Z,11.82
2023-02-15T15:19:07.245Z,11.80
2023-02-15T15:21:53.283Z,11.82
2023-02-15T15:24:38.007Z,11.84
2023-02-15T15:27:46.583Z,11.81
2023-02-15T15:30:15.763Z,11.76
2023-02-15T15:33:00.584Z,11.69
2023-02-15T15:35:44.907Z,11.70
2023-02-15T15:38:55.206Z,11.68
2023-02-15T15:41:49.597Z,11.59
2023-02-15T15:44:52.884Z,11.52
2023-02-15T15:47:41.294Z,11.44
2023-02-15T15:50:17.897Z,11.36
2023-02-15T15:52:52.412Z,11.34
2023-02-15T15:55:23.002Z,11.24
2023-02-15T15:57:55.985Z,11.26
2023-02-15T16:00:37.827Z,11.10
2023-02-15T16:03:05.289Z,11.08
2023-02-15T16:05:39.593Z,10.98
2023-02-15T16:08:06.497Z,10.89
2023-02-15T16:10:36.828Z,10.78
2023-02-15T16:13:03.367Z,10.51
2023-02-15T16:15:50.470Z,10.22
2023-02-15T16:18:18.921Z,9.80
2023-02-15T16:20:57.882Z,9.80
2023-02-15T16:23:36.243Z,9.47
2023-02-15T16:26:39.673Z,9.30
2023-02-15T16:29:26.713Z,9.05
2023-02-15T16:32:19.382Z,8.77
2023-02-15T16:34:56.825Z,8.55
2023-02-15T16:37:28.163Z,8.32
2023-02-15T16:39:56.062Z,8.24
2023-02-15T16:42:23.136Z,8.11
2023-02-15T16:44:55.002Z,7.96
2023-02-15T16:47:32.444Z,7.96
2023-02-15T16:50:02.929Z,7.97
2023-02-15T16:52:30.576Z,7.74
2023-02-15T16:55:00.827Z,7.67
2023-02-15T16:57:30.978Z,7.49
2023-02-15T17:00:04.169Z,7.48
2023-02-15T17:02:54.374Z,7.41
2023-02-15T17:05:20.889Z,7.29
2023-02-15T17:08:04.405Z,7.22
2023-02-15T17:10:32.845Z,7.03
2023-02-15T17:13:04.723Z,7.02
2023-02-15T17:15:38.478Z,6.88
2023-02-15T17:18:15.878Z,6.78
2023-02-15T17:20:44.485Z,6.68
2023-02-15T17:23:23.222Z,6.72
2023-02-15T17:25:49.978Z,6.58
2023-02-15T17:28:19.569Z,6.42
2023-02-15T17:30:47.319Z,6.44
2023-02-15T17:33:23.755Z,6.20
2023-02-15T17:36:05.445Z,6.12
2023-02-15T17:38:32.299Z,6.16
2023-02-15T17:40:59.197Z,6.03
2023-02-15T17:43:26.567Z,5.98
2023-02-15T17:45:53.555Z,5.86
2023-02-15T17:48:35.205Z,5.77
2023-02-15T17:51:03.062Z,5.54
2023-02-15T17:53:29.824Z,5.63
2023-02-15T17:55:56.241Z,5.56
2023-02-15T17:58:22.981Z,5.53
2023-02-15T18:01:11.036Z,5.47
2023-02-15T18:04:02.781Z,5.44
2023-02-15T18:06:48.374Z,5.38
2023-02-15T18:09:36.519Z,5.25
2023-02-15T18:12:15.444Z,5.24
2023-02-15T18:14:41.905Z,5.15
2023-02-15T18:17:12.239Z,5.12
2023-02-15T18:19:38.902Z,4.97
2023-02-15T18:22:11.387Z,4.98
2023-02-15T18:24:37.824Z,4.99
2023-02-15T18:27:05.274Z,4.95
2023-02-15T18:29:32.235Z,4.86
2023-02-15T18:32:00.157Z,4.81
2023-02-15T18:34:38.238Z,4.76
2023-02-15T18:37:07.244Z,4.68
2023-02-15T18:39:40.062Z,4.56
2023-02-15T18:42:20.536Z,4.62
2023-02-15T18:44:47.603Z,4.38
2023-02-15T18:47:14.010Z,4.64
2023-02-15T18:49:40.394Z,4.45
2023-02-15T18:52:14.429Z,4.41
2023-02-15T18:54:42.010Z,4.30
2023-02-15T18:57:15.830Z,4.21
2023-02-15T18:59:42.338Z,4.14
2023-02-15T19:02:17.258Z,4.23
2023-02-15T19:04:45.320Z,4.19
2023-02-15T19:07:17.780Z,4.23
2023-02-15T19:09:47.756Z,4.16
2023-02-15T19:12:14.198Z,4.17
2023-02-15T19:14:40.716Z,4.20
2023-02-15T19:17:15.260Z,4.16
2023-02-15T19:19:41.753Z,4.12
2023-02-15T19:22:30.367Z,4.03
2023-02-15T19:24:59.263Z,4.21
2023-02-15T19:27:28.615Z,3.99
2023-02-15T19:29:55.095Z,3.91
2023-02-15T19:32:21.605Z,3.82
2023-02-15T19:34:48.055Z,3.85
2023-02-15T19:37:36.974Z,3.95
2023-02-15T19:40:04.961Z,3.81
2023-02-15T19:42:32.475Z,3.72
2023-02-15T19:44:58.859Z,3.60
2023-02-15T19:47:27.840Z,3.60
2023-02-15T19:50:00.223Z,3.52
2023-02-15T19:52:26.639Z,3.43
2023-02-15T19:54:54.704Z,3.45
2023-02-15T19:57:21.569Z,3.44
2023-02-15T19:59:47.965Z,3.33
2023-02-15T20:02:15.733Z,3.39
2023-02-15T20:04:42.258Z,3.30
2023-02-15T20:07:28.292Z,3.33
2023-02-15T20:09:54.742Z,3.40
2023-02-15T20:12:24.365Z,3.21
2023-02-15T20:14:51.841Z,3.21
2023-02-15T20:17:18.733Z,3.20
2023-02-15T20:19:46.116Z,3.19
2023-02-15T20:22:24.980Z,3.09
2023-02-15T20:24:52.718Z,3.09
2023-02-15T20:27:19.935Z,3.10
2023-02-15T20:29:46.380Z,3.15
2023-02-15T20:32:13.020Z,3.09
2023-02-15T20:34:39.543Z,3.07
2023-02-15T20:37:06.314Z,3.06
2023-02-15T20:39:34.788Z,3.02
2023-02-15T20:42:01.197Z,2.99
2023-02-15T20:44:30.777Z,2.91
2023-02-15T20:46:59.133Z,2.93
2023-02-15T20:49:27.403Z,2.92
2023-02-15T20:51:56.139Z,2.88
2023-02-15T20:54:28.890Z,2.87
2023-02-15T20:56:55.380Z,2.83
2023-02-15T20:59:23.446Z,2.83
2023-02-15T21:01:51.546Z,2.75
2023-02-15T21:04:32.025Z,2.78
2023-02-15T21:06:59.792Z,2.80
2023-02-15T21:09:26.420Z,2.70
2023-02-15T21:11:55.485Z,2.61
2023-02-15T21:14:25.838Z,2.62
2023-02-15T21:16:53.084Z,2.56
2023-02-15T21:19:21.513Z,2.52
2023-02-15T21:21:50.045Z,2.43
2023-02-15T21:24:34.780Z,2.48
2023-02-15T21:27:03.545Z,2.42
2023-02-15T21:29:30.900Z,2.44
2023-02-15T21:32:01.156Z,2.42
2023-02-15T21:34:27.725Z,2.38
2023-02-15T21:36:54.563Z,2.35
2023-02-15T21:39:23.887Z,2.33
2023-02-15T21:42:11.204Z,2.32
2023-02-15T21:44:56.373Z,2.31
2023-02-15T21:47:47.125Z,2.30
2023-02-15T21:50:41.925Z,2.25
2023-02-15T21:53:12.298Z,2.21
2023-02-15T21:55:38.850Z,2.17
2023-02-15T21:58:06.267Z,2.14
2023-02-15T22:00:33.795Z,2.11
2023-02-15T22:03:01.074Z,2.09
2023-02-15T22:05:30.993Z,2.08
2023-02-15T22:07:57.753Z,2.07
2023-02-15T22:10:32.468Z,2.03
2023-02-15T22:13:03.293Z,2.00
2023-02-15T22:15:35.925Z,1.98
2023-02-15T22:18:02.648Z,1.96
2023-02-15T22:20:29.149Z,1.97
2023-02-15T22:22:55.555Z,1.96
2023-02-15T22:25:24.574Z,1.95
2023-02-15T22:27:52.863Z,1.94
2023-02-15T22:30:25.430Z,1.89
2023-02-15T22:32:52.934Z,1.88
2023-02-15T22:35:28.972Z,1.85
2023-02-15T22:37:55.389Z,2.07
2023-02-15T22:40:25.613Z,1.97
2023-02-15T22:42:53.521Z,1.83
2023-02-15T22:45:23.924Z,1.78
2023-02-15T22:47:53.441Z,1.72
2023-02-15T22:50:26.144Z,1.69
2023-02-15T22:52:53.033Z,1.66
2023-02-15T22:55:22.162Z,1.71
2023-02-15T22:57:51.562Z,1.67
2023-02-15T23:00:24.217Z,1.61
2023-02-15T23:02:50.814Z,1.63
2023-02-15T23:05:26.407Z,1.64
2023-02-15T23:07:53.168Z,1.62
2023-02-15T23:10:21.477Z,1.59
2023-02-15T23:13:09.719Z,1.56
2023-02-15T23:15:37.061Z,1.62
2023-02-15T23:18:17.098Z,1.65
2023-02-15T23:20:54.812Z,1.74
2023-02-15T23:23:29.484Z,1.59
2023-02-15T23:25:56.561Z,1.49
2023-02-15T23:28:41.008Z,1.50
2023-02-15T23:31:18.317Z,1.69
2023-02-15T23:33:45.021Z,1.78
2023-02-15T23:36:34.314Z,1.63
2023-02-15T23:39:30.924Z,1.51
2023-02-15T23:41:59.167Z,1.38
2023-02-15T23:44:25.718Z,1.36
2023-02-15T23:46:52.330Z,1.39
2023-02-15T23:49:19.939Z,1.39
2023-02-15T23:51:49.240Z,1.41
2023-02-15T23:54:17.377Z,1.38
2023-02-15T23:56:46.270Z,1.36
2023-02-15T23:59:17.787Z,1.38
